sensor_id;sensor_type;location;lat;lon;timestamp;P1;durP1;ratioP1;P2;durP2;ratioP2
20173;SDS011;10246;50.620;7.232;2023-03-01T00:00:03;9.60;;;5.80;;
20173;SDS011;10246;50.620;7.232;2023-03-01T00:02:33;9.97;;;6.20;;
20173;SDS011;10246;50.620;7.232;2023-03-01T00:05:00;11.10;;;6.27;;
20173;SDS011;10246;50.620;7.232;2023-03-01T00:07:27;9.90;;;5.80;;
20173;SDS011;10246;50.620;7.232;2023-03-01T00:09:54;9.60;;;5.67;;
20173;SDS011;10246;50.620;7.232;2023-03-01T00:12:21;11.60;;;6.60;;
20173;SDS011;10246;50.620;7.232;2023-03-01T00:14:48;10.23;;;6.13;;
20173;SDS011;10246;50.620;7.232;2023-03-01T00:17:15;6.87;;;4.93;;
20173;SDS011;10246;50.620;7.232;2023-03-01T00:19:43;9.00;;;5.77;;
20173;SDS011;10246;50.620;7.232;2023-03-01T00:22:10;9.83;;;5.50;;
20173;SDS011;10246;50.620;7.232;2023-03-01T00:24:37;9.40;;;6.13;;
20173;SDS011;10246;50.620;7.232;2023-03-01T00:27:04;11.27;;;6.67;;
20173;SDS011;10246;50.620;7.232;2023-03-01T00:29:30;10.97;;;6.83;;
20173;SDS011;10246;50.620;7.232;2023-03-01T00:31:57;11.70;;;6.17;;
20173;SDS011;10246;50.620;7.232;2023-03-01T00:34:25;8.83;;;6.00;;
20173;SDS011;10246;50.620;7.232;2023-03-01T00:36:55;11.47;;;6.73;;
20173;SDS011;10246;50.620;7.232;2023-03-01T00:39:30;9.17;;;5.77;;
20173;SDS011;10246;50.620;7.232;2023-03-01T00:41:57;10.70;;;6.00;;
20173;SDS011;10246;50.620;7.232;2023-03-01T00:44:24;10.17;;;6.13;;
20173;SDS011;10246;50.620;7.232;2023-03-01T00:46:51;7.73;;;5.43;;
20173;SDS011;10246;50.620;7.232;2023-03-01T00:49:18;10.97;;;6.33;;
20173;SDS011;10246;50.620;7.232;2023-03-01T00:51:45;7.47;;;5.57;;
20173;SDS011;10246;50.620;7.232;2023-03-01T00:54:13;8.67;;;5.83;;
20173;SDS011;10246;50.620;7.232;2023-03-01T00:56:40;10.67;;;7.13;;
20173;SDS011;10246;50.620;7.232;2023-03-01T00:59:06;9.73;;;6.60;;
20173;SDS011;10246;50.620;7.232;2023-03-01T01:01:33;9.73;;;6.23;;
20173;SDS011;10246;50.620;7.232;2023-03-01T01:04:01;9.40;;;6.40;;
20173;SDS011;10246;50.620;7.232;2023-03-01T01:06:30;10.20;;;5.93;;
20173;SDS011;10246;50.620;7.232;2023-03-01T01:08:59;9.97;;;6.13;;
20173;SDS011;10246;50.620;7.232;2023-03-01T01:11:28;9.50;;;6.40;;
20173;SDS011;10246;50.620;7.232;2023-03-01T01:13:55;9.40;;;6.27;;
20173;SDS011;10246;50.620;7.232;2023-03-01T01:16:24;10.23;;;6.43;;
20173;SDS011;10246;50.620;7.232;2023-03-01T01:18:52;9.47;;;5.97;;
20173;SDS011;10246;50.620;7.232;2023-03-01T01:21:21;8.97;;;6.67;;
20173;SDS011;10246;50.620;7.232;2023-03-01T01:23:49;7.67;;;5.73;;
20173;SDS011;10246;50.620;7.232;2023-03-01T01:26:17;11.43;;;6.07;;
20173;SDS011;10246;50.620;7.232;2023-03-01T01:28:46;12.03;;;6.83;;
20173;SDS011;10246;50.620;7.232;2023-03-01T01:31:13;11.80;;;6.80;;
20173;SDS011;10246;50.620;7.232;2023-03-01T01:33:40;10.33;;;5.90;;
20173;SDS011;10246;50.620;7.232;2023-03-01T01:36:07;8.73;;;5.80;;
20173;SDS011;10246;50.620;7.232;2023-03-01T01:38:35;12.33;;;6.77;;
20173;SDS011;10246;50.620;7.232;2023-03-01T01:41:03;9.10;;;6.40;;
20173;SDS011;10246;50.620;7.232;2023-03-01T01:43:33;11.53;;;7.07;;
20173;SDS011;10246;50.620;7.232;2023-03-01T01:46:04;9.40;;;6.30;;
20173;SDS011;10246;50.620;7.232;2023-03-01T01:48:34;10.97;;;6.43;;
20173;SDS011;10246;50.620;7.232;2023-03-01T01:51:07;9.80;;;6.27;;
20173;SDS011;10246;50.620;7.232;2023-03-01T01:53:38;10.77;;;7.27;;
20173;SDS011;10246;50.620;7.232;2023-03-01T01:56:07;10.87;;;6.43;;
20173;SDS011;10246;50.620;7.232;2023-03-01T01:58:37;8.80;;;6.20;;
20173;SDS011;10246;50.620;7.232;2023-03-01T02:01:06;10.57;;;6.90;;
20173;SDS011;10246;50.620;7.232;2023-03-01T02:03:34;9.53;;;6.67;;
20173;SDS011;10246;50.620;7.232;2023-03-01T02:06:07;12.10;;;6.72;;
20173;SDS011;10246;50.620;7.232;2023-03-01T02:08:41;11.33;;;5.93;;
20173;SDS011;10246;50.620;7.232;2023-03-01T02:11:09;8.77;;;5.87;;
20173;SDS011;10246;50.620;7.232;2023-03-01T02:13:39;9.73;;;6.30;;
20173;SDS011;10246;50.620;7.232;2023-03-01T02:16:09;8.10;;;5.87;;
20173;SDS011;10246;50.620;7.232;2023-03-01T02:18:37;10.37;;;6.07;;
20173;SDS011;10246;50.620;7.232;2023-03-01T02:21:08;8.73;;;5.93;;
20173;SDS011;10246;50.620;7.232;2023-03-01T02:23:52;9.50;;;6.20;;
20173;SDS011;10246;50.620;7.232;2023-03-01T02:26:23;10.63;;;6.37;;
20173;SDS011;10246;50.620;7.232;2023-03-01T02:28:57;9.27;;;6.27;;
20173;SDS011;10246;50.620;7.232;2023-03-01T02:31:24;10.73;;;6.27;;
20173;SDS011;10246;50.620;7.232;2023-03-01T02:34:11;9.43;;;6.03;;
20173;SDS011;10246;50.620;7.232;2023-03-01T02:36:40;11.17;;;5.97;;
20173;SDS011;10246;50.620;7.232;2023-03-01T02:39:12;11.00;;;6.43;;
20173;SDS011;10246;50.620;7.232;2023-03-01T02:41:43;15.33;;;6.97;;
20173;SDS011;10246;50.620;7.232;2023-03-01T02:44:13;11.47;;;6.97;;
20173;SDS011;10246;50.620;7.232;2023-03-01T02:46:44;10.77;;;7.27;;
20173;SDS011;10246;50.620;7.232;2023-03-01T02:49:17;10.97;;;6.87;;
20173;SDS011;10246;50.620;7.232;2023-03-01T02:51:48;11.67;;;7.23;;
20173;SDS011;10246;50.620;7.232;2023-03-01T02:54:36;10.10;;;6.53;;
20173;SDS011;10246;50.620;7.232;2023-03-01T02:57:07;9.57;;;6.73;;
20173;SDS011;10246;50.620;7.232;2023-03-01T02:59:36;12.13;;;6.00;;
20173;SDS011;10246;50.620;7.232;2023-03-01T03:02:05;10.07;;;6.30;;
20173;SDS011;10246;50.620;7.232;2023-03-01T03:04:32;10.60;;;6.20;;
20173;SDS011;10246;50.620;7.232;2023-03-01T03:06:58;10.80;;;6.67;;
20173;SDS011;10246;50.620;7.232;2023-03-01T03:09:25;8.87;;;6.33;;
20173;SDS011;10246;50.620;7.232;2023-03-01T03:11:53;10.40;;;6.10;;
20173;SDS011;10246;50.620;7.232;2023-03-01T03:14:20;11.47;;;7.23;;
20173;SDS011;10246;50.620;7.232;2023-03-01T03:16:49;10.87;;;6.83;;
20173;SDS011;10246;50.620;7.232;2023-03-01T03:19:16;10.83;;;7.00;;
20173;SDS011;10246;50.620;7.232;2023-03-01T03:21:43;10.87;;;7.23;;
20173;SDS011;10246;50.620;7.232;2023-03-01T03:24:10;10.23;;;7.07;;
20173;SDS011;10246;50.620;7.232;2023-03-01T03:26:37;10.30;;;6.40;;
20173;SDS011;10246;50.620;7.232;2023-03-01T03:29:04;11.60;;;6.70;;
20173;SDS011;10246;50.620;7.232;2023-03-01T03:31:31;12.40;;;6.60;;
20173;SDS011;10246;50.620;7.232;2023-03-01T03:33:59;13.90;;;7.00;;
20173;SDS011;10246;50.620;7.232;2023-03-01T03:36:26;11.23;;;7.13;;
20173;SDS011;10246;50.620;7.232;2023-03-01T03:38:52;13.30;;;7.53;;
20173;SDS011;10246;50.620;7.232;2023-03-01T03:41:19;10.67;;;6.87;;
20173;SDS011;10246;50.620;7.232;2023-03-01T03:43:46;14.20;;;7.17;;
20173;SDS011;10246;50.620;7.232;2023-03-01T03:46:13;10.37;;;6.43;;
20173;SDS011;10246;50.620;7.232;2023-03-01T03:48:42;12.77;;;7.23;;
20173;SDS011;10246;50.620;7.232;2023-03-01T03:51:12;12.77;;;6.93;;
20173;SDS011;10246;50.620;7.232;2023-03-01T03:53:40;10.53;;;6.83;;
20173;SDS011;10246;50.620;7.232;2023-03-01T03:56:07;12.27;;;6.37;;
20173;SDS011;10246;50.620;7.232;2023-03-01T03:58:35;12.33;;;7.17;;
20173;SDS011;10246;50.620;7.232;2023-03-01T04:01:02;10.50;;;6.83;;
20173;SDS011;10246;50.620;7.232;2023-03-01T04:03:29;11.17;;;6.60;;
20173;SDS011;10246;50.620;7.232;2023-03-01T04:05:58;13.03;;;7.50;;
20173;SDS011;10246;50.620;7.232;2023-03-01T04:08:27;12.17;;;7.07;;
20173;SDS011;10246;50.620;7.232;2023-03-01T04:10:56;11.40;;;7.00;;
20173;SDS011;10246;50.620;7.232;2023-03-01T04:13:25;11.33;;;7.03;;
20173;SDS011;10246;50.620;7.232;2023-03-01T04:15:53;10.57;;;6.73;;
20173;SDS011;10246;50.620;7.232;2023-03-01T04:18:20;11.57;;;7.07;;
20173;SDS011;10246;50.620;7.232;2023-03-01T04:20:49;12.73;;;7.53;;
20173;SDS011;10246;50.620;7.232;2023-03-01T04:23:20;14.57;;;8.57;;
20173;SDS011;10246;50.620;7.232;2023-03-01T04:25:49;12.17;;;7.63;;
20173;SDS011;10246;50.620;7.232;2023-03-01T04:28:20;13.77;;;7.83;;
20173;SDS011;10246;50.620;7.232;2023-03-01T04:30:49;12.20;;;6.97;;
20173;SDS011;10246;50.620;7.232;2023-03-01T04:33:16;14.53;;;7.33;;
20173;SDS011;10246;50.620;7.232;2023-03-01T04:35:43;12.23;;;7.10;;
20173;SDS011;10246;50.620;7.232;2023-03-01T04:38:10;12.43;;;7.33;;
20173;SDS011;10246;50.620;7.232;2023-03-01T04:40:37;13.13;;;7.43;;
20173;SDS011;10246;50.620;7.232;2023-03-01T04:43:05;11.37;;;6.97;;
20173;SDS011;10246;50.620;7.232;2023-03-01T04:45:32;11.17;;;6.77;;
20173;SDS011;10246;50.620;7.232;2023-03-01T04:48:01;12.30;;;7.20;;
20173;SDS011;10246;50.620;7.232;2023-03-01T04:50:28;11.83;;;7.10;;
20173;SDS011;10246;50.620;7.232;2023-03-01T04:52:55;11.83;;;7.40;;
20173;SDS011;10246;50.620;7.232;2023-03-01T04:55:23;12.70;;;7.60;;
20173;SDS011;10246;50.620;7.232;2023-03-01T04:57:50;11.43;;;7.20;;
20173;SDS011;10246;50.620;7.232;2023-03-01T05:00:19;13.00;;;7.57;;
20173;SDS011;10246;50.620;7.232;2023-03-01T05:02:47;13.80;;;8.40;;
20173;SDS011;10246;50.620;7.232;2023-03-01T05:05:18;16.27;;;8.07;;
20173;SDS011;10246;50.620;7.232;2023-03-01T05:07:46;15.13;;;8.20;;
20173;SDS011;10246;50.620;7.232;2023-03-01T05:10:13;10.90;;;7.40;;
20173;SDS011;10246;50.620;7.232;2023-03-01T05:12:40;12.97;;;7.67;;
20173;SDS011;10246;50.620;7.232;2023-03-01T05:15:07;14.17;;;8.03;;
20173;SDS011;10246;50.620;7.232;2023-03-01T05:17:36;11.80;;;6.70;;
20173;SDS011;10246;50.620;7.232;2023-03-01T05:20:03;13.07;;;7.50;;
20173;SDS011;10246;50.620;7.232;2023-03-01T05:22:33;12.93;;;7.60;;
20173;SDS011;10246;50.620;7.232;2023-03-01T05:25:00;12.87;;;6.33;;
20173;SDS011;10246;50.620;7.232;2023-03-01T05:27:29;14.43;;;8.03;;
20173;SDS011;10246;50.620;7.232;2023-03-01T05:29:56;13.17;;;7.73;;
20173;SDS011;10246;50.620;7.232;2023-03-01T05:32:23;13.47;;;8.07;;
20173;SDS011;10246;50.620;7.232;2023-03-01T05:34:51;11.90;;;7.57;;
20173;SDS011;10246;50.620;7.232;2023-03-01T05:37:19;13.10;;;7.23;;
20173;SDS011;10246;50.620;7.232;2023-03-01T05:39:46;13.80;;;7.27;;
20173;SDS011;10246;50.620;7.232;2023-03-01T05:42:15;10.63;;;7.00;;
20173;SDS011;10246;50.620;7.232;2023-03-01T05:44:42;12.17;;;7.07;;
20173;SDS011;10246;50.620;7.232;2023-03-01T05:47:09;11.90;;;6.87;;
20173;SDS011;10246;50.620;7.232;2023-03-01T05:49:36;10.40;;;7.17;;
20173;SDS011;10246;50.620;7.232;2023-03-01T05:52:04;13.10;;;7.80;;
20173;SDS011;10246;50.620;7.232;2023-03-01T05:54:31;11.00;;;7.57;;
20173;SDS011;10246;50.620;7.232;2023-03-01T05:56:58;14.17;;;7.50;;
20173;SDS011;10246;50.620;7.232;2023-03-01T05:59:24;13.80;;;7.93;;
20173;SDS011;10246;50.620;7.232;2023-03-01T06:01:51;12.87;;;7.33;;
20173;SDS011;10246;50.620;7.232;2023-03-01T06:04:18;14.43;;;7.93;;
20173;SDS011;10246;50.620;7.232;2023-03-01T06:06:46;10.77;;;7.20;;
20173;SDS011;10246;50.620;7.232;2023-03-01T06:09:14;13.10;;;7.60;;
20173;SDS011;10246;50.620;7.232;2023-03-01T06:11:40;12.63;;;7.33;;
20173;SDS011;10246;50.620;7.232;2023-03-01T06:14:07;12.63;;;7.90;;
20173;SDS011;10246;50.620;7.232;2023-03-01T06:16:35;13.03;;;7.73;;
20173;SDS011;10246;50.620;7.232;2023-03-01T06:19:02;15.50;;;8.27;;
20173;SDS011;10246;50.620;7.232;2023-03-01T06:21:29;13.83;;;8.57;;
20173;SDS011;10246;50.620;7.232;2023-03-01T06:23:55;12.03;;;7.73;;
20173;SDS011;10246;50.620;7.232;2023-03-01T06:26:23;13.20;;;8.10;;
20173;SDS011;10246;50.620;7.232;2023-03-01T06:28:50;10.43;;;7.33;;
20173;SDS011;10246;50.620;7.232;2023-03-01T06:31:17;17.23;;;9.40;;
20173;SDS011;10246;50.620;7.232;2023-03-01T06:33:44;10.57;;;7.33;;
20173;SDS011;10246;50.620;7.232;2023-03-01T06:36:10;13.93;;;8.07;;
20173;SDS011;10246;50.620;7.232;2023-03-01T06:38:37;12.37;;;7.70;;
20173;SDS011;10246;50.620;7.232;2023-03-01T06:41:05;18.90;;;8.97;;
20173;SDS011;10246;50.620;7.232;2023-03-01T06:43:34;14.83;;;9.37;;
20173;SDS011;10246;50.620;7.232;2023-03-01T06:46:03;15.10;;;8.80;;
20173;SDS011;10246;50.620;7.232;2023-03-01T06:48:31;16.50;;;8.97;;
20173;SDS011;10246;50.620;7.232;2023-03-01T06:50:58;12.90;;;8.57;;
20173;SDS011;10246;50.620;7.232;2023-03-01T06:53:25;14.93;;;8.27;;
20173;SDS011;10246;50.620;7.232;2023-03-01T06:55:53;14.17;;;8.57;;
20173;SDS011;10246;50.620;7.232;2023-03-01T06:58:20;17.17;;;8.67;;
20173;SDS011;10246;50.620;7.232;2023-03-01T07:00:49;12.53;;;8.23;;
20173;SDS011;10246;50.620;7.232;2023-03-01T07:03:19;12.40;;;7.83;;
20173;SDS011;10246;50.620;7.232;2023-03-01T07:05:48;14.90;;;9.10;;
20173;SDS011;10246;50.620;7.232;2023-03-01T07:08:16;13.27;;;8.37;;
20173;SDS011;10246;50.620;7.232;2023-03-01T07:10:43;14.93;;;9.23;;
20173;SDS011;10246;50.620;7.232;2023-03-01T07:13:10;13.33;;;8.00;;
20173;SDS011;10246;50.620;7.232;2023-03-01T07:15:36;15.10;;;8.77;;
20173;SDS011;10246;50.620;7.232;2023-03-01T07:18:05;14.13;;;7.40;;
20173;SDS011;10246;50.620;7.232;2023-03-01T07:20:32;14.50;;;8.30;;
20173;SDS011;10246;50.620;7.232;2023-03-01T07:22:58;15.47;;;9.57;;
20173;SDS011;10246;50.620;7.232;2023-03-01T07:25:25;17.30;;;9.53;;
20173;SDS011;10246;50.620;7.232;2023-03-01T07:27:52;15.73;;;9.37;;
20173;SDS011;10246;50.620;7.232;2023-03-01T07:30:19;17.53;;;9.70;;
20173;SDS011;10246;50.620;7.232;2023-03-01T07:32:46;16.63;;;11.07;;
20173;SDS011;10246;50.620;7.232;2023-03-01T07:35:15;14.43;;;9.47;;
20173;SDS011;10246;50.620;7.232;2023-03-01T07:37:41;17.90;;;11.30;;
20173;SDS011;10246;50.620;7.232;2023-03-01T07:40:09;19.37;;;10.80;;
20173;SDS011;10246;50.620;7.232;2023-03-01T07:42:37;18.03;;;11.33;;
20173;SDS011;10246;50.620;7.232;2023-03-01T07:45:04;19.07;;;11.40;;
20173;SDS011;10246;50.620;7.232;2023-03-01T07:47:31;20.77;;;11.90;;
20173;SDS011;10246;50.620;7.232;2023-03-01T07:49:58;19.33;;;11.93;;
20173;SDS011;10246;50.620;7.232;2023-03-01T07:52:27;18.57;;;10.83;;
20173;SDS011;10246;50.620;7.232;2023-03-01T07:54:54;16.67;;;10.27;;
20173;SDS011;10246;50.620;7.232;2023-03-01T07:57:21;18.87;;;11.40;;
20173;SDS011;10246;50.620;7.232;2023-03-01T07:59:48;15.80;;;10.33;;
20173;SDS011;10246;50.620;7.232;2023-03-01T08:02:14;18.57;;;10.47;;
20173;SDS011;10246;50.620;7.232;2023-03-01T08:04:41;16.93;;;10.17;;
20173;SDS011;10246;50.620;7.232;2023-03-01T08:07:08;19.67;;;11.20;;
20173;SDS011;10246;50.620;7.232;2023-03-01T08:09:36;17.27;;;10.83;;
20173;SDS011;10246;50.620;7.232;2023-03-01T08:12:03;18.83;;;10.83;;
20173;SDS011;10246;50.620;7.232;2023-03-01T08:14:31;17.93;;;10.77;;
20173;SDS011;10246;50.620;7.232;2023-03-01T08:16:58;20.90;;;11.60;;
20173;SDS011;10246;50.620;7.232;2023-03-01T08:19:25;16.80;;;10.57;;
20173;SDS011;10246;50.620;7.232;2023-03-01T08:21:53;17.33;;;10.90;;
20173;SDS011;10246;50.620;7.232;2023-03-01T08:24:19;19.80;;;10.57;;
20173;SDS011;10246;50.620;7.232;2023-03-01T08:26:47;19.07;;;11.87;;
20173;SDS011;10246;50.620;7.232;2023-03-01T08:29:14;16.60;;;10.63;;
20173;SDS011;10246;50.620;7.232;2023-03-01T08:31:42;19.63;;;10.97;;
20173;SDS011;10246;50.620;7.232;2023-03-01T08:34:09;17.40;;;10.50;;
20173;SDS011;10246;50.620;7.232;2023-03-01T08:36:39;19.77;;;11.60;;
20173;SDS011;10246;50.620;7.232;2023-03-01T08:39:07;17.33;;;11.03;;
20173;SDS011;10246;50.620;7.232;2023-03-01T08:41:35;16.13;;;10.60;;
20173;SDS011;10246;50.620;7.232;2023-03-01T08:44:04;18.17;;;10.70;;
20173;SDS011;10246;50.620;7.232;2023-03-01T08:46:33;15.80;;;10.80;;
20173;SDS011;10246;50.620;7.232;2023-03-01T08:49:03;18.00;;;11.17;;
20173;SDS011;10246;50.620;7.232;2023-03-01T08:51:30;21.43;;;12.40;;
20173;SDS011;10246;50.620;7.232;2023-03-01T08:54:01;20.20;;;12.27;;
20173;SDS011;10246;50.620;7.232;2023-03-01T08:56:28;20.67;;;12.23;;
20173;SDS011;10246;50.620;7.232;2023-03-01T08:58:55;25.37;;;14.13;;
20173;SDS011;10246;50.620;7.232;2023-03-01T09:01:23;24.17;;;13.30;;
20173;SDS011;10246;50.620;7.232;2023-03-01T09:03:50;22.80;;;13.47;;
20173;SDS011;10246;50.620;7.232;2023-03-01T09:06:18;22.30;;;13.57;;
20173;SDS011;10246;50.620;7.232;2023-03-01T09:08:45;22.33;;;13.77;;
20173;SDS011;10246;50.620;7.232;2023-03-01T09:11:14;22.07;;;13.33;;
20173;SDS011;10246;50.620;7.232;2023-03-01T09:13:42;21.73;;;12.67;;
20173;SDS011;10246;50.620;7.232;2023-03-01T09:16:10;21.77;;;12.80;;
20173;SDS011;10246;50.620;7.232;2023-03-01T09:18:39;24.83;;;13.87;;
20173;SDS011;10246;50.620;7.232;2023-03-01T09:21:07;22.50;;;13.07;;
20173;SDS011;10246;50.620;7.232;2023-03-01T09:23:35;21.17;;;12.50;;
20173;SDS011;10246;50.620;7.232;2023-03-01T09:26:04;20.47;;;13.13;;
20173;SDS011;10246;50.620;7.232;2023-03-01T09:28:31;22.50;;;14.20;;
20173;SDS011;10246;50.620;7.232;2023-03-01T09:30:58;26.63;;;13.97;;
20173;SDS011;10246;50.620;7.232;2023-03-01T09:33:25;23.80;;;12.27;;
20173;SDS011;10246;50.620;7.232;2023-03-01T09:35:57;21.30;;;13.37;;
20173;SDS011;10246;50.620;7.232;2023-03-01T09:38:25;22.53;;;13.10;;
20173;SDS011;10246;50.620;7.232;2023-03-01T09:40:53;20.30;;;12.77;;
20173;SDS011;10246;50.620;7.232;2023-03-01T09:43:21;20.13;;;12.40;;
20173;SDS011;10246;50.620;7.232;2023-03-01T09:45:52;23.77;;;12.93;;
20173;SDS011;10246;50.620;7.232;2023-03-01T09:48:22;19.10;;;12.53;;
20173;SDS011;10246;50.620;7.232;2023-03-01T09:50:52;20.33;;;13.10;;
20173;SDS011;10246;50.620;7.232;2023-03-01T09:53:21;21.57;;;13.47;;
20173;SDS011;10246;50.620;7.232;2023-03-01T09:55:54;21.20;;;11.77;;
20173;SDS011;10246;50.620;7.232;2023-03-01T09:58:28;21.97;;;12.47;;
20173;SDS011;10246;50.620;7.232;2023-03-01T10:01:02;20.17;;;12.63;;
20173;SDS011;10246;50.620;7.232;2023-03-01T10:03:36;16.30;;;10.93;;
20173;SDS011;10246;50.620;7.232;2023-03-01T10:06:10;18.67;;;11.90;;
20173;SDS011;10246;50.620;7.232;2023-03-01T10:08:42;20.40;;;12.23;;
20173;SDS011;10246;50.620;7.232;2023-03-01T10:11:17;19.87;;;13.10;;
20173;SDS011;10246;50.620;7.232;2023-03-01T10:13:50;21.23;;;12.33;;
20173;SDS011;10246;50.620;7.232;2023-03-01T10:16:24;20.00;;;12.13;;
20173;SDS011;10246;50.620;7.232;2023-03-01T10:19:00;20.37;;;12.13;;
20173;SDS011;10246;50.620;7.232;2023-03-01T10:21:29;19.57;;;12.03;;
20173;SDS011;10246;50.620;7.232;2023-03-01T10:24:04;19.40;;;12.27;;
20173;SDS011;10246;50.620;7.232;2023-03-01T10:26:55;20.40;;;12.13;;
20173;SDS011;10246;50.620;7.232;2023-03-01T10:29:37;19.70;;;11.57;;
20173;SDS011;10246;50.620;7.232;2023-03-01T10:32:22;18.97;;;11.73;;
20173;SDS011;10246;50.620;7.232;2023-03-01T10:34:52;18.57;;;11.37;;
20173;SDS011;10246;50.620;7.232;2023-03-01T10:37:25;18.37;;;11.70;;
20173;SDS011;10246;50.620;7.232;2023-03-01T10:39:58;22.40;;;11.00;;
20173;SDS011;10246;50.620;7.232;2023-03-01T10:42:31;18.90;;;11.30;;
20173;SDS011;10246;50.620;7.232;2023-03-01T10:45:14;17.80;;;11.17;;
20173;SDS011;10246;50.620;7.232;2023-03-01T10:47:42;16.53;;;10.67;;
20173;SDS011;10246;50.620;7.232;2023-03-01T10:50:17;16.37;;;9.87;;
20173;SDS011;10246;50.620;7.232;2023-03-01T10:52:55;15.80;;;9.83;;
20173;SDS011;10246;50.620;7.232;2023-03-01T10:55:26;13.10;;;9.47;;
20173;SDS011;10246;50.620;7.232;2023-03-01T10:58:16;18.17;;;10.57;;
20173;SDS011;10246;50.620;7.232;2023-03-01T11:00:46;14.90;;;9.47;;
20173;SDS011;10246;50.620;7.232;2023-03-01T11:03:14;18.67;;;10.13;;
20173;SDS011;10246;50.620;7.232;2023-03-01T11:05:51;16.00;;;9.40;;
20173;SDS011;10246;50.620;7.232;2023-03-01T11:08:30;16.23;;;8.90;;
20173;SDS011;10246;50.620;7.232;2023-03-01T11:11:16;15.47;;;8.77;;
20173;SDS011;10246;50.620;7.232;2023-03-01T11:13:50;17.73;;;9.73;;
20173;SDS011;10246;50.620;7.232;2023-03-01T11:16:23;14.40;;;8.80;;
20173;SDS011;10246;50.620;7.232;2023-03-01T11:18:56;13.80;;;9.20;;
20173;SDS011;10246;50.620;7.232;2023-03-01T11:21:24;16.47;;;10.43;;
20173;SDS011;10246;50.620;7.232;2023-03-01T11:23:54;16.10;;;9.00;;
20173;SDS011;10246;50.620;7.232;2023-03-01T11:26:25;14.10;;;8.20;;
20173;SDS011;10246;50.620;7.232;2023-03-01T11:28:55;13.17;;;8.03;;
20173;SDS011;10246;50.620;7.232;2023-03-01T11:31:26;13.70;;;9.17;;
20173;SDS011;10246;50.620;7.232;2023-03-01T11:33:55;15.00;;;8.80;;
20173;SDS011;10246;50.620;7.232;2023-03-01T11:36:28;14.27;;;8.67;;
20173;SDS011;10246;50.620;7.232;2023-03-01T11:39:01;15.70;;;8.60;;
20173;SDS011;10246;50.620;7.232;2023-03-01T11:41:31;14.40;;;8.40;;
20173;SDS011;10246;50.620;7.232;2023-03-01T11:44:03;13.87;;;8.87;;
20173;SDS011;10246;50.620;7.232;2023-03-01T11:46:41;14.03;;;8.50;;
20173;SDS011;10246;50.620;7.232;2023-03-01T11:52:35;13.57;;;8.20;;
20173;SDS011;10246;50.620;7.232;2023-03-01T11:55:12;13.33;;;8.80;;
20173;SDS011;10246;50.620;7.232;2023-03-01T11:57:55;15.50;;;8.73;;
20173;SDS011;10246;50.620;7.232;2023-03-01T12:00:51;14.57;;;8.73;;
20173;SDS011;10246;50.620;7.232;2023-03-01T12:03:30;17.27;;;9.90;;
20173;SDS011;10246;50.620;7.232;2023-03-01T12:09:02;14.37;;;8.47;;
20173;SDS011;10246;50.620;7.232;2023-03-01T12:11:41;12.70;;;8.43;;
20173;SDS011;10246;50.620;7.232;2023-03-01T12:14:33;14.13;;;8.03;;
20173;SDS011;10246;50.620;7.232;2023-03-01T12:17:16;15.37;;;7.57;;
20173;SDS011;10246;50.620;7.232;2023-03-01T12:20:08;13.50;;;7.40;;
20173;SDS011;10246;50.620;7.232;2023-03-01T12:22:43;11.87;;;7.67;;
20173;SDS011;10246;50.620;7.232;2023-03-01T12:25:33;12.23;;;7.57;;
20173;SDS011;10246;50.620;7.232;2023-03-01T12:28:09;11.93;;;7.47;;
20173;SDS011;10246;50.620;7.232;2023-03-01T12:31:02;14.80;;;7.53;;
20173;SDS011;10246;50.620;7.232;2023-03-01T12:33:42;9.50;;;6.50;;
20173;SDS011;10246;50.620;7.232;2023-03-01T12:39:24;10.13;;;6.50;;
20173;SDS011;10246;50.620;7.232;2023-03-01T12:42:08;10.77;;;6.50;;
20173;SDS011;10246;50.620;7.232;2023-03-01T12:44:51;9.60;;;6.30;;
20173;SDS011;10246;50.620;7.232;2023-03-01T12:47:30;11.13;;;6.93;;
20173;SDS011;10246;50.620;7.232;2023-03-01T12:50:10;10.40;;;6.27;;
20173;SDS011;10246;50.620;7.232;2023-03-01T12:52:43;9.10;;;5.90;;
20173;SDS011;10246;50.620;7.232;2023-03-01T12:55:18;13.70;;;6.83;;
20173;SDS011;10246;50.620;7.232;2023-03-01T12:57:52;10.73;;;6.67;;
20173;SDS011;10246;50.620;7.232;2023-03-01T13:00:27;8.33;;;5.33;;
20173;SDS011;10246;50.620;7.232;2023-03-01T13:03:00;8.63;;;5.70;;
20173;SDS011;10246;50.620;7.232;2023-03-01T13:05:39;10.27;;;6.00;;
20173;SDS011;10246;50.620;7.232;2023-03-01T13:08:19;8.13;;;5.77;;
20173;SDS011;10246;50.620;7.232;2023-03-01T13:10:54;8.70;;;5.47;;
20173;SDS011;10246;50.620;7.232;2023-03-01T13:13:26;7.17;;;5.10;;
20173;SDS011;10246;50.620;7.232;2023-03-01T13:15:54;10.70;;;6.30;;
20173;SDS011;10246;50.620;7.232;2023-03-01T13:21:08;10.40;;;6.33;;
20173;SDS011;10246;50.620;7.232;2023-03-01T13:23:35;11.73;;;5.87;;
20173;SDS011;10246;50.620;7.232;2023-03-01T13:26:05;10.83;;;5.20;;
20173;SDS011;10246;50.620;7.232;2023-03-01T13:28:39;9.87;;;5.23;;
20173;SDS011;10246;50.620;7.232;2023-03-01T13:34:42;7.77;;;5.07;;
20173;SDS011;10246;50.620;7.232;2023-03-01T13:37:23;7.50;;;4.73;;
20173;SDS011;10246;50.620;7.232;2023-03-01T13:39:54;10.53;;;5.43;;
20173;SDS011;10246;50.620;7.232;2023-03-01T13:42:34;9.97;;;5.80;;
20173;SDS011;10246;50.620;7.232;2023-03-01T13:45:04;9.37;;;4.93;;
20173;SDS011;10246;50.620;7.232;2023-03-01T13:47:41;7.70;;;5.00;;
20173;SDS011;10246;50.620;7.232;2023-03-01T13:50:18;11.07;;;5.63;;
20173;SDS011;10246;50.620;7.232;2023-03-01T13:52:48;6.17;;;4.83;;
20173;SDS011;10246;50.620;7.232;2023-03-01T13:55:18;7.47;;;5.03;;
20173;SDS011;10246;50.620;7.232;2023-03-01T13:57:49;7.80;;;5.13;;
20173;SDS011;10246;50.620;7.232;2023-03-01T14:00:33;7.77;;;5.27;;
20173;SDS011;10246;50.620;7.232;2023-03-01T14:03:03;7.70;;;4.90;;
20173;SDS011;10246;50.620;7.232;2023-03-01T14:05:39;6.47;;;4.87;;
20173;SDS011;10246;50.620;7.232;2023-03-01T14:08:17;7.10;;;4.67;;
20173;SDS011;10246;50.620;7.232;2023-03-01T14:10:49;8.17;;;5.00;;
20173;SDS011;10246;50.620;7.232;2023-03-01T14:13:39;9.20;;;5.07;;
20173;SDS011;10246;50.620;7.232;2023-03-01T14:16:20;7.53;;;5.03;;
20173;SDS011;10246;50.620;7.232;2023-03-01T14:18:55;7.77;;;4.17;;
20173;SDS011;10246;50.620;7.232;2023-03-01T14:21:34;6.70;;;4.57;;
20173;SDS011;10246;50.620;7.232;2023-03-01T14:24:01;8.17;;;4.20;;
20173;SDS011;10246;50.620;7.232;2023-03-01T14:26:29;6.43;;;4.10;;
20173;SDS011;10246;50.620;7.232;2023-03-01T14:28:58;7.67;;;4.40;;
20173;SDS011;10246;50.620;7.232;2023-03-01T14:31:35;7.13;;;4.33;;
20173;SDS011;10246;50.620;7.232;2023-03-01T14:34:03;7.30;;;4.50;;
20173;SDS011;10246;50.620;7.232;2023-03-01T14:36:31;7.13;;;4.53;;
20173;SDS011;10246;50.620;7.232;2023-03-01T14:39:00;10.23;;;5.07;;
20173;SDS011;10246;50.620;7.232;2023-03-01T14:41:41;10.60;;;5.63;;
20173;SDS011;10246;50.620;7.232;2023-03-01T14:44:12;7.63;;;5.00;;
20173;SDS011;10246;50.620;7.232;2023-03-01T14:46:43;7.93;;;5.03;;
20173;SDS011;10246;50.620;7.232;2023-03-01T14:49:13;8.83;;;4.80;;
20173;SDS011;10246;50.620;7.232;2023-03-01T14:51:45;7.13;;;4.80;;
20173;SDS011;10246;50.620;7.232;2023-03-01T14:54:21;9.80;;;4.87;;
20173;SDS011;10246;50.620;7.232;2023-03-01T14:56:51;9.73;;;5.03;;
20173;SDS011;10246;50.620;7.232;2023-03-01T14:59:19;7.50;;;4.80;;
20173;SDS011;10246;50.620;7.232;2023-03-01T15:01:48;7.57;;;4.57;;
20173;SDS011;10246;50.620;7.232;2023-03-01T15:04:16;8.53;;;4.43;;
20173;SDS011;10246;50.620;7.232;2023-03-01T15:06:47;8.70;;;4.97;;